Time;durP1;ratioP1;P1;durP2;ratioP2;P2;SDS_P1;SDS_P2;PMS_P1;PMS_P2;Temp;Humidity;BMP_temperature;BMP_pressure;BME280_temperature;BME280_humidity;BME280_pressure;Samples;Min_cycle;Max_cycle;Signal;HPM_P1;HPM_P2
2022/01/19 00:01:05;;;;;;;23.43;17.00;;;;;;;-0.28;100.00;103235.63;5110577;28;20068;-64
2022/01/19 00:03:31;;;;;;;20.37;16.07;;;;;;;-0.32;100.00;103237.63;5111484;28;20035;-63
2022/01/19 00:05:57;;;;;;;28.03;17.47;;;;;;;-0.35;100.00;103228.00;5111691;28;20028;-63
2022/01/19 00:08:22;;;;;;;29.43;18.47;;;;;;;-0.39;100.00;103220.72;5111470;28;20023;-63
2022/01/19 00:10:50;;;;;;;28.87;19.57;;;;;;;-0.43;100.00;103218.56;5111064;28;20042;-63
2022/01/19 00:13:18;;;;;;;27.63;19.60;;;;;;;-0.45;100.00;103220.03;5111152;28;20122;-63
2022/01/19 00:15:45;;;;;;;33.40;20.37;;;;;;;-0.50;100.00;103217.84;5111172;28;20024;-63
2022/01/19 00:18:11;;;;;;;36.43;20.97;;;;;;;-0.55;100.00;103216.41;5111245;28;20081;-63
2022/01/19 00:20:37;;;;;;;27.93;20.73;;;;;;;-0.56;100.00;103221.34;5111166;28;20020;-63
2022/01/19 00:23:04;;;;;;;33.17;21.17;;;;;;;-0.57;100.00;103238.25;5110984;28;20026;-63
2022/01/19 00:25:31;;;;;;;35.07;21.63;;;;;;;-0.57;100.00;103225.50;5111158;28;20417;-63
2022/01/19 00:27:56;;;;;;;31.77;19.47;;;;;;;-0.57;100.00;103220.41;5110647;28;20039;-63
2022/01/19 00:30:22;;;;;;;34.60;20.53;;;;;;;-0.58;100.00;103194.75;5110125;28;20028;-63
2022/01/19 00:32:47;;;;;;;28.90;20.80;;;;;;;-0.62;100.00;103174.03;5110880;28;20076;-63
2022/01/19 00:35:13;;;;;;;27.43;20.90;;;;;;;-0.63;100.00;103158.59;5111253;28;20038;-63
2022/01/19 00:37:40;;;;;;;26.77;19.13;;;;;;;-0.66;100.00;103142.94;5110613;28;20019;-63
2022/01/19 00:40:07;;;;;;;33.77;21.27;;;;;;;-0.69;100.00;103138.41;5110540;28;20031;-63
2022/01/19 00:42:34;;;;;;;32.20;20.67;;;;;;;-0.74;100.00;103120.03;5110521;28;20360;-63
2022/01/19 00:44:59;;;;;;;32.27;20.67;;;;;;;-0.76;100.00;103116.44;5110622;28;20027;-63
2022/01/19 00:47:25;;;;;;;29.87;21.47;;;;;;;-0.77;100.00;103119.69;5109944;28;20522;-64
2022/01/19 00:49:50;;;;;;;30.83;20.10;;;;;;;-0.77;100.00;103128.94;5110448;28;20027;-64
2022/01/19 00:52:16;;;;;;;31.00;20.63;;;;;;;-0.77;100.00;103134.97;5110659;28;20064;-63
2022/01/19 00:54:41;;;;;;;29.87;19.97;;;;;;;-0.76;100.00;103151.16;5110433;28;20035;-64
2022/01/19 00:57:07;;;;;;;32.80;21.60;;;;;;;-0.78;100.00;103144.97;5109497;28;20538;-63
2022/01/19 00:59:33;;;;;;;37.50;21.00;;;;;;;-0.79;100.00;103156.78;5110462;28;20137;-63
2022/01/19 01:01:59;;;;;;;36.33;21.67;;;;;;;-0.80;100.00;103161.72;5110087;28;20024;-63
2022/01/19 01:04:24;;;;;;;30.07;20.07;;;;;;;-0.81;100.00;103157.38;5110598;28;20022;-63
2022/01/19 01:06:49;;;;;;;39.90;22.17;;;;;;;-0.85;100.00;103151.00;5110198;28;20019;-63
2022/01/19 01:09:15;;;;;;;42.47;22.90;;;;;;;-0.85;100.00;103140.81;5110038;28;20028;-63
2022/01/19 01:11:48;;;;;;;46.30;22.20;;;;;;;-0.87;100.00;103135.56;5109737;28;20054;-63
2022/01/19 01:16:58;;;;;;;50.00;24.83;;;;;;;-0.90;100.00;103119.03;5110195;28;20309;-63
2022/01/19 01:19:24;;;;;;;55.10;27.17;;;;;;;-0.95;100.00;103104.84;5110203;28;20436;-63
2022/01/19 01:21:49;;;;;;;68.93;26.60;;;;;;;-1.00;100.00;103097.59;5091659;28;20059;-63
2022/01/19 01:24:14;;;;;;;44.97;25.27;;;;;;;-1.02;100.00;103105.75;5109774;28;20490;-63
2022/01/19 01:26:40;;;;;;;46.30;26.77;;;;;;;-1.05;100.00;103096.16;5109460;28;20034;-63
2022/01/19 01:29:05;;;;;;;62.57;27.67;;;;;;;-1.09;100.00;103088.88;5109893;28;20031;-63
2022/01/19 01:31:30;;;;;;;45.10;25.93;;;;;;;-1.14;100.00;103078.16;5091520;28;20020;-63
2022/01/19 01:33:55;;;;;;;43.93;25.53;;;;;;;-1.16;100.00;103066.91;5109964;28;20438;-63
2022/01/19 01:36:21;;;;;;;58.03;27.80;;;;;;;-1.18;100.00;103057.25;5110062;28;20107;-63
2022/01/19 01:38:46;;;;;;;61.77;31.03;;;;;;;-1.21;100.00;103037.47;5113409;28;20102;-63
2022/01/19 01:41:14;;;;;;;58.50;30.00;;;;;;;-1.19;100.00;103022.38;5114054;28;20027;-64
2022/01/19 01:43:42;;;;;;;65.93;31.73;;;;;;;-1.23;100.00;103019.50;5114618;28;20589;-63
2022/01/19 01:46:13;;;;;;;63.93;32.80;;;;;;;-1.27;100.00;103012.22;5113831;28;20498;-63
2022/01/19 01:48:44;;;;;;;57.37;31.13;;;;;;;-1.26;100.00;103008.94;5113940;28;20051;-63
2022/01/19 01:53:57;;;;;;;56.47;30.30;;;;;;;-1.26;100.00;103014.00;5113970;28;20373;-63
2022/01/19 01:56:23;;;;;;;53.07;29.90;;;;;;;-1.23;100.00;103014.41;5112905;28;20019;-63
2022/01/19 01:58:49;;;;;;;56.93;29.60;;;;;;;-1.18;100.00;103016.53;5113751;28;20024;-62
2022/01/19 02:01:15;;;;;;;55.20;30.20;;;;;;;-1.18;100.00;103019.09;5113565;28;20077;-62
2022/01/19 02:03:42;;;;;;;48.80;28.10;;;;;;;-1.18;100.00;103011.44;5113669;28;20067;-63
2022/01/19 02:09:19;;;;;;;47.63;27.83;;;;;;;-1.17;100.00;103011.63;5029903;28;20108;-63
2022/01/19 02:23:04;;;;;;;38.80;25.07;;;;;;;-1.22;100.00;102965.31;5010235;28;20065;-62
2022/01/19 02:25:36;;;;;;;37.33;25.45;;;;;;;-1.23;100.00;102962.59;5009860;28;20125;-63
2022/01/19 02:41:36;;;;;;;33.30;23.20;;;;;;;-1.34;100.00;102923.19;5009702;28;20040;-63
2022/01/19 02:44:02;;;;;;;38.83;25.47;;;;;;;-1.43;100.00;102914.50;5009836;28;20034;-63
2022/01/19 02:49:19;;;;;;;36.23;25.30;;;;;;;-1.47;100.00;102895.44;5048074;28;20041;-63
2022/01/19 02:51:48;;;;;;;36.90;25.40;;;;;;;-1.47;100.00;102881.09;5074381;28;20042;-64
2022/01/19 02:54:15;;;;;;;38.73;25.10;;;;;;;-1.45;100.00;102884.72;5078355;28;20035;-63
2022/01/19 02:56:43;;;;;;;36.40;24.93;;;;;;;-1.45;100.00;102899.06;5072157;28;20052;-63
2022/01/19 02:59:25;;;;;;;34.83;24.63;;;;;;;-1.47;100.00;102888.72;5072361;28;20021;-62
2022/01/19 03:09:45;;;;;;;34.83;25.23;;;;;;;-1.52;100.00;102874.56;5071874;28;20476;-63
2022/01/19 03:12:11;;;;;;;34.13;24.70;;;;;;;-1.52;100.00;102859.31;5088594;28;20031;-62
2022/01/19 03:14:37;;;;;;;36.77;25.40;;;;;;;-1.54;100.00;102860.78;5112342;28;20087;-63
2022/01/19 03:17:03;;;;;;;35.97;25.90;;;;;;;-1.54;100.00;102857.31;5112218;28;20039;-63
2022/01/19 03:19:30;;;;;;;38.53;25.07;;;;;;;-1.55;100.00;102856.44;5112400;28;20019;-63
2022/01/19 03:21:56;;;;;;;33.67;24.77;;;;;;;-1.61;100.00;102840.47;5111369;28;20030;-63
2022/01/19 03:24:21;;;;;;;36.90;25.07;;;;;;;-1.65;100.00;102838.28;5111667;28;20036;-63
2022/01/19 03:26:46;;;;;;;44.53;25.77;;;;;;;-1.68;100.00;102836.31;5112024;28;20454;-63
2022/01/19 03:29:12;;;;;;;43.47;27.13;;;;;;;-1.69;100.00;102832.84;5111852;28;20463;-63
2022/01/19 03:31:37;;;;;;;45.07;26.80;;;;;;;-1.67;100.00;102829.59;5111847;28;20063;-63
2022/01/19 03:34:03;;;;;;;43.17;27.57;;;;;;;-1.69;100.00;102827.78;5111994;28;20387;-62
2022/01/19 03:36:29;;;;;;;42.93;27.60;;;;;;;-1.69;100.00;102825.22;5111752;28;20403;-63
2022/01/19 03:38:55;;;;;;;45.13;27.97;;;;;;;-1.67;100.00;102832.16;5112021;28;20038;-62
2022/01/19 03:41:20;;;;;;;47.67;28.90;;;;;;;-1.66;100.00;102817.06;5111583;28;20042;-62
2022/01/19 03:43:46;;;;;;;47.60;30.17;;;;;;;-1.65;100.00;102821.41;5104840;28;20024;-63
2022/01/19 03:46:15;;;;;;;49.00;31.73;;;;;;;-1.61;100.00;102818.47;5091043;28;20281;-63
2022/01/19 03:51:09;;;;;;;55.23;32.33;;;;;;;-1.56;100.00;102808.81;5095031;28;20035;-63
2022/01/19 03:53:34;;;;;;;52.37;33.73;;;;;;;-1.53;100.00;102795.56;5111494;28;20704;-63
2022/01/19 03:56:00;;;;;;;61.60;34.33;;;;;;;-1.49;100.00;102790.06;5111357;28;20035;-62
2022/01/19 03:58:25;;;;;;;56.40;33.77;;;;;;;-1.46;100.00;102783.69;5111354;28;20024;-62
2022/01/19 04:00:55;;;;;;;59.97;35.27;;;;;;;-1.42;100.00;102772.22;5111014;28;20131;-63
2022/01/19 04:03:27;;;;;;;63.70;37.60;;;;;;;-1.38;100.00;102778.56;5111538;28;20464;-62
2022/01/19 04:08:18;;;;;;;59.03;35.43;;;;;;;-1.32;100.00;102769.06;5111483;28;20395;-63
2022/01/19 04:10:43;;;;;;;58.37;36.43;;;;;;;-1.28;100.00;102768.69;5110968;28;20024;-63
2022/01/19 04:13:25;;;;;;;65.17;37.17;;;;;;;-1.26;100.00;102764.66;5111352;28;20409;-63
2022/01/19 04:15:51;;;;;;;;;;;;;;;-1.22;100.00;102761.72;5111962;28;20028;-63
2022/01/19 04:18:17;;;;;;;69.23;38.83;;;;;;;-1.16;100.00;102755.50;5110964;28;19914;-62
2022/01/19 04:20:47;;;;;;;76.83;41.57;;;;;;;-1.10;100.00;102756.19;5106179;28;20038;-63
2022/01/19 04:23:13;;;;;;;82.40;42.37;;;;;;;-1.05;100.00;102749.97;5110673;28;20467;-62
2022/01/19 04:25:38;;;;;;;76.73;42.90;;;;;;;-1.01;100.00;102757.19;5110861;28;20038;-63
2022/01/19 04:28:07;;;;;;;81.97;45.70;;;;;;;-0.97;100.00;102756.78;5110596;28;20058;-63
2022/01/19 04:30:34;;;;;;;78.17;43.33;;;;;;;-0.93;100.00;102764.75;5110643;28;20058;-62
2022/01/19 04:33:09;;;;;;;78.17;43.30;;;;;;;-0.93;100.00;102765.69;5110621;28;20019;-62
2022/01/19 04:35:48;;;;;;;80.97;43.00;;;;;;;-0.92;100.00;102761.50;5110793;28;20073;-63
2022/01/19 05:01:40;;;;;;;108.37;52.17;;;;;;;-0.67;100.00;102754.00;5110314;28;20106;-63
2022/01/19 05:03:09;;;;;;;102.50;50.07;;;;;;;-0.66;100.00;102736.31;5109827;28;20044;-63
2022/01/19 05:05:45;;;;;;;109.83;51.07;;;;;;;-0.66;100.00;102741.41;5110414;28;20031;-63
2022/01/19 05:08:35;;;;;;;118.67;53.67;;;;;;;-0.64;100.00;102739.03;5110322;28;20480;-63
2022/01/19 05:13:50;;;;;;;111.50;51.17;;;;;;;-0.58;100.00;102733.72;5109591;28;20055;-63
2022/01/19 05:16:16;;;;;;;101.27;51.00;;;;;;;-0.54;100.00;102730.75;5109672;28;20445;-63
2022/01/19 05:18:41;;;;;;;103.60;50.73;;;;;;;-0.49;100.00;102738.13;5110197;28;20049;-62
2022/01/19 05:21:06;;;;;;;103.50;50.50;;;;;;;-0.46;100.00;102744.31;5110066;28;20019;-62
2022/01/19 05:23:32;;;;;;;104.33;51.27;;;;;;;-0.46;100.00;102750.31;5110051;28;20111;-63
2022/01/19 05:25:57;;;;;;;98.47;49.43;;;;;;;-0.46;100.00;102745.22;5109049;28;20160;-63
2022/01/19 05:28:23;;;;;;;95.20;48.57;;;;;;;-0.46;100.00;102746.84;5110019;28;20046;-63
2022/01/19 05:30:48;;;;;;;102.63;50.10;;;;;;;-0.47;100.00;102752.69;5109868;28;20039;-62
2022/01/19 05:33:13;;;;;;;96.00;49.67;;;;;;;-0.51;100.00;102754.91;5109902;28;20028;-63
2022/01/19 05:35:38;;;;;;;101.70;49.67;;;;;;;-0.52;100.00;102750.53;5110040;28;20034;-63
2022/01/19 05:38:05;;;;;;;99.50;49.10;;;;;;;-0.52;100.00;102742.91;5109931;28;20016;-63
2022/01/19 05:40:30;;;;;;;96.77;49.80;;;;;;;-0.52;100.00;102742.91;5107991;28;20105;-64
2022/01/19 05:42:56;;;;;;;91.53;49.53;;;;;;;-0.51;100.00;102739.63;5109594;28;20573;-63
2022/01/19 05:45:21;;;;;;;96.47;47.03;;;;;;;-0.50;100.00;102736.34;5091473;28;20479;-63
2022/01/19 05:47:47;;;;;;;85.03;47.00;;;;;;;-0.49;100.00;102735.59;5109457;28;20250;-64
2022/01/19 05:50:13;;;;;;;90.73;48.77;;;;;;;-0.45;100.00;102734.28;5109260;28;20032;-63
2022/01/19 05:52:39;;;;;;;87.97;47.07;;;;;;;-0.46;100.00;102729.00;5109747;28;20058;-63
2022/01/19 05:55:04;;;;;;;85.53;47.30;;;;;;;-0.45;100.00;102721.53;5109493;28;20464;-63
2022/01/19 05:57:32;;;;;;;87.87;46.80;;;;;;;-0.43;100.00;102726.81;5108612;28;20015;-63
2022/01/19 05:59:57;;;;;;;86.40;48.83;;;;;;;-0.42;100.00;102726.06;5109759;28;20479;-63
2022/01/19 06:02:22;;;;;;;88.50;46.17;;;;;;;-0.42;100.00;102726.97;5109476;28;20035;-63
2022/01/19 06:04:49;;;;;;;80.93;43.83;;;;;;;-0.41;100.00;102725.31;5109289;28;20478;-64
2022/01/19 06:07:15;;;;;;;86.30;47.17;;;;;;;-0.39;100.00;102724.75;5109378;28;20086;-63
2022/01/19 06:12:11;;;;;;;80.80;47.30;;;;;;;-0.35;100.00;102722.53;5107765;28;20077;-63
2022/01/19 06:14:38;;;;;;;84.13;46.87;;;;;;;-0.34;100.00;102725.22;5109228;28;20031;-64
2022/01/19 06:17:05;;;;;;;76.73;44.77;;;;;;;-0.34;100.00;102715.03;5109331;28;20035;-63
2022/01/19 06:19:31;;;;;;;80.87;45.60;;;;;;;-0.31;100.00;102711.94;5109815;28;20487;-63
2022/01/19 06:21:56;;;;;;;76.50;45.53;;;;;;;-0.30;100.00;102716.28;5109634;28;20035;-63
2022/01/19 06:24:22;;;;;;;78.60;45.70;;;;;;;-0.30;100.00;102712.09;5111645;28;20145;-63
2022/01/19 06:26:48;;;;;;;76.97;43.53;;;;;;;-0.28;100.00;102710.63;5112043;28;20024;-64
2022/01/19 06:29:13;;;;;;;76.13;43.67;;;;;;;-0.25;100.00;102708.38;5113255;28;20079;-63
2022/01/19 06:31:39;;;;;;;75.70;43.07;;;;;;;-0.23;100.00;102703.44;5112861;28;20127;-63
2022/01/19 06:34:04;;;;;;;72.87;43.83;;;;;;;-0.21;100.00;102693.41;5113132;28;20184;-63
2022/01/19 06:36:30;;;;;;;72.67;43.83;;;;;;;-0.21;100.00;102686.69;5113064;28;20024;-63
2022/01/19 06:38:56;;;;;;;72.60;43.90;;;;;;;-0.19;100.00;102684.28;5112919;28;20016;-63
2022/01/19 06:41:21;;;;;;;72.43;43.47;;;;;;;-0.18;100.00;102676.78;5111072;28;20050;-64
2022/01/19 06:43:46;;;;;;;71.33;42.97;;;;;;;-0.17;100.00;102672.59;5112863;28;20080;-63
2022/01/19 06:46:12;;;;;;;68.43;41.37;;;;;;;-0.17;100.00;102677.72;5113137;28;20028;-63
2022/01/19 06:48:37;;;;;;;69.60;42.00;;;;;;;-0.15;100.00;102677.13;5112986;28;20027;-64
2022/01/19 06:51:03;;;;;;;69.20;40.83;;;;;;;-0.13;100.00;102674.75;5111071;28;20027;-63
2022/01/19 06:53:29;;;;;;;69.33;40.40;;;;;;;-0.11;100.00;102668.19;5112702;28;20076;-63
2022/01/19 06:55:57;;;;;;;57.93;40.20;;;;;;;-0.09;100.00;102658.13;5112785;28;20055;-63
2022/01/19 06:58:26;;;;;;;68.27;41.57;;;;;;;-0.09;100.00;102651.38;5112763;28;20019;-63
2022/01/19 07:00:52;;;;;;;63.87;40.17;;;;;;;-0.07;100.00;102649.88;5112038;28;20395;-63
2022/01/19 07:03:17;;;;;;;61.17;38.67;;;;;;;-0.05;100.00;102640.75;5112106;28;20024;-63
2022/01/19 07:05:43;;;;;;;61.17;39.53;;;;;;;-0.04;100.00;102645.13;5111108;28;20024;-63
2022/01/19 07:08:08;;;;;;;61.17;38.83;;;;;;;-0.05;100.00;102648.41;5111757;28;20278;-64
2022/01/19 07:10:33;;;;;;;60.07;37.00;;;;;;;-0.02;100.00;102637.63;5111382;28;20032;-63
2022/01/19 07:13:00;;;;;;;55.13;37.00;;;;;;;-0.02;100.00;102635.97;5111375;28;20039;-63
2022/01/19 07:15:26;;;;;;;63.33;36.70;;;;;;;-0.01;100.00;102635.25;5111924;28;20032;-63
2022/01/19 07:17:51;;;;;;;57.10;37.10;;;;;;;0.03;100.00;102636.47;5110849;28;20076;-63
2022/01/19 07:20:16;;;;;;;54.17;35.47;;;;;;;0.07;100.00;102637.69;5111866;28;20027;-63
2022/01/19 07:22:42;;;;;;;55.27;37.20;;;;;;;0.07;100.00;102638.56;5110205;28;20019;-63
2022/01/19 07:25:08;;;;;;;56.77;36.07;;;;;;;0.08;100.00;102632.75;5110809;28;20054;-64
2022/01/19 07:27:33;;;;;;;55.13;38.03;;;;;;;0.09;100.00;102626.88;5108913;28;20032;-64
2022/01/19 07:29:59;;;;;;;52.00;35.57;;;;;;;0.11;100.00;102627.03;5108508;28;20286;-65
2022/01/19 07:32:29;;;;;;;55.43;36.13;;;;;;;0.13;100.00;102628.09;5109587;28;20024;-64
2022/01/19 07:34:54;;;;;;;52.33;34.57;;;;;;;0.16;100.00;102631.00;5108027;28;20098;-63
2022/01/19 07:37:19;;;;;;;51.93;34.33;;;;;;;0.15;100.00;102618.97;5108811;28;20023;-63
2022/01/19 07:39:45;;;;;;;50.83;34.07;;;;;;;0.16;100.00;102620.81;5109073;28;20027;-63
2022/01/19 07:42:10;;;;;;;54.03;36.17;;;;;;;0.18;100.00;102623.50;5108320;28;20083;-63
2022/01/19 07:44:35;;;;;;;55.67;35.93;;;;;;;0.20;100.00;102625.44;5108587;28;20110;-63
2022/01/19 07:47:01;;;;;;;51.10;37.07;;;;;;;0.21;100.00;102622.16;5108402;28;20051;-63
2022/01/19 07:49:26;;;;;;;56.57;36.37;;;;;;;0.22;100.00;102623.97;5109740;28;20016;-63
2022/01/19 07:51:51;;;;;;;53.40;34.47;;;;;;;0.25;100.00;102615.75;5107831;28;20102;-63
2022/01/19 07:54:17;;;;;;;54.80;36.13;;;;;;;0.27;100.00;102621.88;5090530;28;20031;-63
2022/01/19 07:56:42;;;;;;;49.27;35.67;;;;;;;0.27;100.00;102626.09;5108265;28;20030;-66
2022/01/19 07:59:07;;;;;;;52.00;35.87;;;;;;;0.29;100.00;102629.72;5107783;28;20088;-63
2022/01/19 08:01:33;;;;;;;53.60;35.50;;;;;;;0.30;100.00;102621.31;5091022;28;20043;-63
2022/01/19 08:03:59;;;;;;;50.47;33.90;;;;;;;0.31;100.00;102613.81;5090935;28;20020;-63
2022/01/19 08:06:25;;;;;;;53.90;35.20;;;;;;;0.35;100.00;102612.47;5097114;28;20020;-63
2022/01/19 08:08:51;;;;;;;51.47;34.90;;;;;;;0.37;100.00;102608.44;5112323;27;20270;-63
2022/01/19 08:11:17;;;;;;;49.30;35.83;;;;;;;0.39;100.00;102606.03;5111417;28;20055;-63
2022/01/19 08:13:42;;;;;;;50.50;34.30;;;;;;;0.41;100.00;102610.56;5110947;28;20054;-63
2022/01/19 08:16:07;;;;;;;49.80;33.57;;;;;;;0.44;100.00;102608.31;5111251;28;20027;-63
2022/01/19 08:18:33;;;;;;;46.70;33.47;;;;;;;0.45;100.00;102602.44;5110727;28;20069;-63
2022/01/19 08:20:58;;;;;;;49.10;33.07;;;;;;;0.47;100.00;102590.75;5110409;28;20111;-63
2022/01/19 08:23:24;;;;;;;47.20;32.93;;;;;;;0.50;100.00;102591.81;5111086;28;20027;-63
2022/01/19 08:25:49;;;;;;;47.23;33.43;;;;;;;0.53;100.00;102585.38;5110666;28;20115;-63
2022/01/19 08:28:14;;;;;;;45.30;33.43;;;;;;;0.55;100.00;102577.88;5110689;28;20024;-63
2022/01/19 08:30:40;;;;;;;46.03;32.70;;;;;;;0.55;100.00;102583.88;5110802;28;20024;-64
2022/01/19 08:33:05;;;;;;;47.33;32.60;;;;;;;0.57;100.00;102586.59;5110747;28;20087;-63
2022/01/19 08:35:31;;;;;;;50.90;33.33;;;;;;;0.59;100.00;102580.00;5091894;28;20023;-63
2022/01/19 08:37:56;;;;;;;45.93;32.07;;;;;;;0.61;100.00;102583.59;5110379;28;20353;-63
2022/01/19 08:40:27;;;;;;;48.73;32.80;;;;;;;0.64;100.00;102583.00;5110571;28;20027;-63
2022/01/19 08:42:53;;;;;;;47.75;33.42;;;;;;;0.66;100.00;102584.97;5110226;28;20114;-63
2022/01/19 08:45:19;;;;;;;43.80;31.80;;;;;;;0.68;100.00;102588.59;5110859;28;20034;-63
2022/01/19 08:47:44;;;;;;;42.33;31.73;;;;;;;0.71;100.00;102577.75;5110092;28;20035;-63
2022/01/19 08:50:12;;;;;;;42.23;30.97;;;;;;;0.71;100.00;102565.91;5091449;28;20378;-63
2022/01/19 08:52:38;;;;;;;42.37;31.03;;;;;;;0.75;100.00;102561.09;5098177;28;20022;-63
2022/01/19 08:55:04;;;;;;;42.77;31.67;;;;;;;0.76;100.00;102560.34;5109774;28;20031;-63
2022/01/19 08:57:29;;;;;;;41.43;30.70;;;;;;;0.79;100.00;102561.56;5110268;28;20081;-63
2022/01/19 08:59:54;;;;;;;42.87;30.57;;;;;;;0.81;100.00;102556.63;5110132;28;20054;-63
2022/01/19 09:02:20;;;;;;;42.10;30.33;;;;;;;0.82;100.00;102554.22;5109607;28;20036;-63
2022/01/19 09:04:45;;;;;;;39.73;30.20;;;;;;;0.84;100.00;102556.94;5110198;28;20031;-64
2022/01/19 09:07:11;;;;;;;44.27;32.03;;;;;;;0.87;100.00;102549.56;5109757;28;20031;-63
2022/01/19 09:09:36;;;;;;;39.70;29.43;;;;;;;0.90;100.00;102544.75;5109899;28;20032;-63
2022/01/19 09:12:02;;;;;;;39.30;29.63;;;;;;;0.91;100.00;102536.38;5109810;28;20112;-63
2022/01/19 09:14:30;;;;;;;38.17;27.97;;;;;;;0.96;100.00;102539.34;5109799;28;20068;-63
2022/01/19 09:16:55;;;;;;;38.87;28.20;;;;;;;1.00;100.00;102538.91;5109737;28;20827;-63
2022/01/19 09:19:20;;;;;;;40.10;29.20;;;;;;;1.01;100.00;102530.50;5109986;28;20027;-63
2022/01/19 09:21:48;;;;;;;36.83;27.03;;;;;;;1.03;100.00;102533.19;5108908;28;20039;-63
2022/01/19 09:24:14;;;;;;;38.77;28.70;;;;;;;1.05;100.00;102537.72;5109250;28;20023;-63
2022/01/19 09:26:39;;;;;;;34.67;27.90;;;;;;;1.05;100.00;102536.81;5110009;28;20050;-63
2022/01/19 09:29:05;;;;;;;35.73;27.83;;;;;;;1.06;100.00;102541.19;5109678;28;20262;-63
2022/01/19 09:31:33;;;;;;;37.60;27.70;;;;;;;1.08;100.00;102538.00;5109412;28;20059;-63
2022/01/19 09:34:14;;;;;;;37.40;27.70;;;;;;;1.10;100.00;102535.59;5109705;28;20106;-63
2022/01/19 09:36:51;;;;;;;;;;;;;;;1.11;100.00;102523.75;5109576;28;20038;-64
2022/01/19 09:39:23;;;;;;;35.67;27.20;;;;;;;1.14;100.00;102518.94;5088708;28;19915;-64
2022/01/19 09:41:49;;;;;;;32.97;26.37;;;;;;;1.14;100.00;102517.28;5109427;28;20368;-64
2022/01/19 09:44:19;;;;;;;38.57;28.27;;;;;;;1.15;100.00;102521.63;5109848;28;20034;-63
2022/01/19 09:46:46;;;;;;;34.90;26.60;;;;;;;1.16;100.00;102505.56;5109477;28;20042;-63
2022/01/19 09:49:12;;;;;;;36.30;26.30;;;;;;;1.18;100.00;102498.97;5109472;28;20088;-64
2022/01/19 09:51:42;;;;;;;33.93;26.50;;;;;;;1.22;100.00;102494.13;5108820;28;20027;-63
2022/01/19 09:54:08;;;;;;;33.27;26.70;;;;;;;1.24;100.00;102492.63;5109394;28;20471;-63
2022/01/19 09:56:33;;;;;;;35.77;27.03;;;;;;;1.27;100.00;102490.38;5109624;28;20115;-63
2022/01/19 09:58:58;;;;;;;31.70;25.57;;;;;;;1.30;100.00;102486.47;5110982;28;20079;-63
2022/01/19 10:01:25;;;;;;;30.10;25.40;;;;;;;1.32;100.00;102489.16;5113559;28;20047;-63
2022/01/19 10:03:51;;;;;;;31.03;25.60;;;;;;;1.36;100.00;102483.59;5112964;28;20031;-63
2022/01/19 10:06:23;;;;;;;29.20;24.87;;;;;;;1.41;100.00;102476.38;5113165;28;20038;-63
2022/01/19 10:08:51;;;;;;;33.90;26.13;;;;;;;1.44;100.00;102469.91;5113296;28;20019;-63
2022/01/19 10:11:22;;;;;;;33.80;25.87;;;;;;;1.46;100.00;102467.47;5113581;28;20035;-63
2022/01/19 10:17:00;;;;;;;30.52;24.23;;;;;;;1.52;100.00;102459.50;5113671;28;20099;-63
2022/01/19 10:19:36;;;;;;;31.33;24.67;;;;;;;1.54;100.00;102461.47;5111952;28;20201;-63
2022/01/19 10:22:17;;;;;;;28.90;23.40;;;;;;;1.58;100.00;102462.66;5101711;28;20060;-63
2022/01/19 10:24:55;;;;;;;30.17;24.73;;;;;;;1.62;100.00;102472.41;5108840;28;20043;-63
2022/01/19 10:27:21;;;;;;;27.90;23.67;;;;;;;1.67;100.00;102465.19;5113078;28;20486;-63
2022/01/19 10:29:49;;;;;;;28.03;22.83;;;;;;;1.71;100.00;102466.38;5112863;28;20114;-63
2022/01/19 10:32:15;;;;;;;28.03;23.67;;;;;;;1.72;100.00;102458.84;5112481;28;20494;-63
2022/01/19 10:34:41;;;;;;;29.30;23.70;;;;;;;1.76;100.00;102449.81;5113014;28;20023;-64
2022/01/19 10:37:06;;;;;;;28.83;24.13;;;;;;;1.78;100.00;102438.06;5112620;28;20040;-63
2022/01/19 10:39:42;;;;;;;26.57;22.73;;;;;;;1.83;100.00;102430.81;5112660;28;20437;-63
2022/01/19 10:42:16;;;;;;;26.93;23.50;;;;;;;1.86;100.00;102432.00;5112871;28;20020;-63
2022/01/19 10:44:42;;;;;;;27.53;22.80;;;;;;;1.88;100.00;102425.38;5112679;28;20027;-63
2022/01/19 10:47:10;;;;;;;28.60;22.37;;;;;;;1.92;100.00;102432.56;5112597;28;20077;-63
2022/01/19 10:49:55;;;;;;;26.30;22.07;;;;;;;1.95;100.00;102431.06;5111759;28;20023;-63
2022/01/19 10:52:31;;;;;;;28.93;23.17;;;;;;;1.98;100.00;102426.25;5092848;28;20460;-64
2022/01/19 10:54:58;;;;;;;27.17;23.47;;;;;;;1.99;100.00;102438.25;5073567;28;20024;-63
2022/01/19 10:57:25;;;;;;;27.83;22.87;;;;;;;2.01;100.00;102426.53;5096455;28;20073;-64
2022/01/19 10:59:51;;;;;;;29.83;24.00;;;;;;;2.03;100.00;102427.56;5112434;28;20488;-63
2022/01/19 11:02:18;;;;;;;30.83;23.80;;;;;;;2.02;100.00;102425.75;5111753;28;20038;-63
2022/01/19 11:04:45;;;;;;;29.20;24.30;;;;;;;2.03;100.00;102419.91;5112207;28;20055;-63
2022/01/19 11:07:11;;;;;;;27.13;22.90;;;;;;;2.03;100.00;102410.53;5112247;28;20019;-64
2022/01/19 11:09:46;;;;;;;29.33;23.87;;;;;;;2.03;100.00;102412.22;5111275;28;20023;-63
2022/01/19 11:12:18;;;;;;;29.10;23.80;;;;;;;2.06;100.00;102409.03;5111997;28;20621;-64
2022/01/19 11:14:45;;;;;;;30.87;23.60;;;;;;;2.04;100.00;102406.34;5112379;28;20384;-63
2022/01/19 11:17:11;;;;;;;29.60;24.17;;;;;;;2.04;100.00;102399.56;5112226;28;20467;-63
2022/01/19 11:19:41;;;;;;;28.57;24.57;;;;;;;2.05;100.00;102392.81;5111066;28;20023;-63
2022/01/19 11:22:27;;;;;;;27.77;23.85;;;;;;;2.06;100.00;102381.81;5111980;28;20027;-63
2022/01/19 11:25:01;;;;;;;30.27;25.57;;;;;;;2.08;100.00;102380.28;5111934;28;20068;-63
2022/01/19 11:27:34;;;;;;;27.63;24.23;;;;;;;2.09;100.00;102373.50;5093573;28;20412;-63
2022/01/19 11:30:22;;;;;;;32.80;25.40;;;;;;;2.10;100.00;102371.13;5112112;28;20630;-64
2022/01/19 11:33:24;;;;;;;31.37;27.17;;;;;;;2.09;100.00;102360.72;5110617;28;20022;-63
2022/01/19 11:35:53;;;;;;;34.20;26.50;;;;;;;2.09;100.00;102353.94;5111354;28;20072;-63
2022/01/19 11:38:34;;;;;;;29.53;25.13;;;;;;;2.12;100.00;102338.88;5111893;28;20637;-63
2022/01/19 11:41:06;;;;;;;31.40;25.95;;;;;;;2.13;100.00;102350.00;5111524;28;20405;-63
2022/01/19 11:43:32;;;;;;;32.37;26.20;;;;;;;2.10;100.00;102337.84;5112096;28;20034;-63
2022/01/19 11:45:59;;;;;;;31.20;26.27;;;;;;;2.13;100.00;102339.78;5110673;28;20326;-63
2022/01/19 11:48:28;;;;;;;32.00;26.10;;;;;;;2.15;100.00;102339.16;5111182;28;20028;-63
2022/01/19 11:51:23;;;;;;;32.37;26.07;;;;;;;2.16;100.00;102325.59;5081574;27;20042;-64
2022/01/19 11:54:21;;;;;;;36.03;26.90;;;;;;;2.16;100.00;102310.25;5104341;28;20027;-63
2022/01/19 11:56:58;;;;;;;32.87;26.57;;;;;;;2.17;100.00;102318.84;5011051;28;20049;-64
2022/01/19 11:59:25;;;;;;;33.87;27.83;;;;;;;2.19;100.00;102304.53;5020910;28;20040;-64
2022/01/19 12:01:51;;;;;;;36.13;28.90;;;;;;;2.19;100.00;102303.63;5010393;28;20622;-64
2022/01/19 12:04:21;;;;;;;36.53;28.23;;;;;;;2.21;100.00;102299.56;5013979;28;20041;-64
2022/01/19 12:06:47;;;;;;;37.67;29.15;;;;;;;2.20;100.00;102295.19;5017035;28;20045;-65
2022/01/19 12:09:14;;;;;;;35.93;28.77;;;;;;;2.20;100.00;102284.94;5010513;28;20746;-63
2022/01/19 12:11:50;;;;;;;34.90;29.30;;;;;;;2.20;100.00;102283.28;5012786;28;20033;-63
2022/01/19 12:14:21;;;;;;;35.50;29.23;;;;;;;2.21;100.00;102289.31;5015392;28;20037;-63
2022/01/19 12:17:00;;;;;;;37.60;29.90;;;;;;;2.21;100.00;102282.56;5026559;28;20113;-64
2022/01/19 12:19:28;;;;;;;35.93;30.20;;;;;;;2.23;100.00;102283.56;5004899;28;20074;-62
2022/01/19 12:22:11;;;;;;;35.83;30.97;;;;;;;2.22;100.00;102269.00;5027101;28;20041;-63
2022/01/19 12:24:41;;;;;;;40.93;32.43;;;;;;;2.21;100.00;102266.28;5016232;28;20498;-63
2022/01/19 12:27:12;;;;;;;37.57;30.53;;;;;;;2.24;100.00;102261.44;5027227;28;20048;-63